ENML

Molde Airport

Årø, Norway
METAR ENML 162220Z AUTO 06011KT 0650NDV R07/1900D SN VV008 M02/M02 Q0987
Observed Flight Rules
Jan-16 @ 22:20 UTC (12 minutes ago) Instrument Flight Rules
Wind Clouds Conditions
60° at 11 knots
  • Vertical visibility at 800' AGL
  • Snow
Temperatures Readings
Current -2°C / 28°F
Dewpoint -2°C / 28°F
Humidity 100%
Altimeter 29.14" Hg
Pressure 986.92 hPa
Elevation 3
METAR ENML 162220Z AUTO 06011KT 0650NDV R07/1900D SN VV008 M02/M02 Q0987
Observed Flight Rules
Jan-16 @ 22:20 UTC
(12 minutes ago)
LIFR
Wind
60° at 11 knots
Clouds
  • Vertical visibility at 800' AGL
Conditions
  • Snow
Temperature Dewpoint
-2°C / 28°F -2°C / 28°F
Humidity Altimeter Pressure
100% 29.14" Hg 986.92 hPa